ДАННЫЕ О ПОГОДЕ

ВЧЕРА
Time Темп. Т росы. Влаж. Давл.
00:01 22.5 17 71 1014.2
00:11 22.4 16.9 71 1014.1
00:21 22.3 16.8 71 1014.1
00:31 22.2 16.7 71 1014.1
00:42 22.1 16.8 72 1014.1
00:52 22 16.7 72 1014.1
01:02 21.9 16.6 72 1014
01:11 21.8 16.7 73 1013.9
01:22 21.6 16.6 73 1014
01:32 21.4 16.4 73 1014
01:42 21.3 16.5 74 1013.9
01:53 21.2 16.4 74 1014
02:03 21.1 16.3 74 1013.9
02:12 21 16.2 74 1013.9
02:22 20.9 16.1 74 1013.8
02:33 20.8 16 74 1013.9
02:43 20.8 16 74 1013.8
02:53 20.7 16.1 75 1013.7
03:03 20.6 16 75 1013.7
03:13 20.5 15.9 75 1013.7
03:23 20.4 15.8 75 1013.7
03:33 20.2 15.6 75 1013.7
03:44 20.1 15.5 75 1013.7
03:54 19.9 15.3 75 1013.6
04:04 19.8 15.5 76 1013.6
04:13 19.8 15.5 76 1013.6
04:24 19.7 15.4 76 1013.6
04:34 19.6 15.3 76 1013.6
04:44 19.5 15.2 76 1013.6
04:55 19.4 15.1 76 1013.5
05:05 19.3 15 76 1013.6
05:15 19.3 15 76 1013.5
05:24 19.2 14.9 76 1013.6
05:35 19.2 14.9 76 1013.6
05:45 19.1 14.8 76 1013.6
05:55 19.1 14.8 76 1013.6
06:05 19 14.7 76 1013.6
06:16 19 14.7 76 1013.5
06:25 19 14.7 76 1013.6
06:35 19 14.7 76 1013.6
06:46 19 14.7 76 1013.7
06:56 19.1 14.8 76 1013.6
07:06 20 15.6 76 1013.6
07:16 21.3 16.5 74 1013.6
07:26 22.2 16.9 72 1013.8
07:36 22.7 17 70 1014
07:46 22.6 16.9 70 1014.1
07:57 22.5 16.8 70 1014.1
08:07 22.6 16.9 70 1014.2
08:17 22.9 17.1 70 1014.3
08:26 23.2 17.2 69 1014.4
08:37 23.7 17.4 68 1014.4
08:47 24.5 17.7 66 1014.5
08:57 25.4 18.1 64 1014.6
09:07 27.1 18.9 61 1014.7
09:18 28.9 19.5 57 1014.7
09:27 30.3 20 54 1014.6
09:37 31.4 20.4 52 1014.5
09:48 32.1 20 49 1014.5
09:58 32.7 18.9 44 1014.4
10:08 33.5 19.2 43 1014.6
10:18 33.5 18.1 40 1014.5
10:28 33.2 17.4 39 1014.5
10:38 33.4 17.1 38 1014.5
10:48 32.8 16.6 38 1014.6
10:59 33.3 17.1 38 1014.5
11:09 33.4 17.1 38 1014.2
11:19 33.6 15.1 33 1014.3
11:29 33.9 15.4 33 1014.2
11:39 34.1 15.1 32 1014.1
11:59 33.9 14.9 32 1013.9
12:09 34.7 14.6 30 1013.8
12:20 33.7 14.2 31 1013.6
12:29 33.2 16.6 37 1013.6
12:39 32 16.7 40 1013.5
12:50 31.2 16.4 41 1013.5
13:00 31 15.8 40 1013.5
13:10 30.3 16 42 1013.6
13:20 30 16.1 43 1013.7
13:30 29.9 16.7 45 1013.7
13:40 29.5 16.3 45 1013.7

СТАТИСТИКА ЗА ДЕНЬ

2019-08-17
TЕМПЕРАТУРА
СРЕДНЯЯ
24.7
МАКСИМАЛЬНАЯ
34.7
12:09
МИНИМАЛЬНАЯ
19.0
06:05
ДАВЛЕНИЕ
СРЕДНЯЯ
1013.9
МАКСИМАЛЬНАЯ
1014.7
09:07
МИНИМАЛЬНАЯ
1013.5
04:55
ТОЧКА РОСЫ
СРЕДНЯЯ
16.4
МАКСИМАЛЬНАЯ
20.4
09:37
МИНИМАЛЬНАЯ
14.2
12:20
ВЛАЖНОСТЬ
СРЕДНЯЯ
63
МАКСИМАЛЬНАЯ
76
04:04
МИНИМАЛЬНАЯ
30
12:09
TЕМПЕРАТУРА (°C)
МИНИМАЛЬНАЯ
19.0
МАКСИМАЛЬНАЯ
34.7
СРЕДНЯЯ
24.7
ДАВЛЕНИЕ (hpa)
МИНИМАЛЬНАЯ
1013.5
МАКСИМАЛЬНАЯ
1014.7
СРЕДНЯЯ
1013.9
УСТРОЙСТВО